sensor_id;sensor_type;location;lat;lon;timestamp;P1;durP1;ratioP1;P2;durP2;ratioP2
20391;SDS011;10355;53.688;10.078;2023-06-19T00:02:32;6.45;;;4.28;;
20391;SDS011;10355;53.688;10.078;2023-06-19T00:05:14;9.63;;;4.35;;
20391;SDS011;10355;53.688;10.078;2023-06-19T00:07:58;5.75;;;3.95;;
20391;SDS011;10355;53.688;10.078;2023-06-19T00:10:41;6.47;;;4.28;;
20391;SDS011;10355;53.688;10.078;2023-06-19T00:13:24;5.90;;;4.03;;
20391;SDS011;10355;53.688;10.078;2023-06-19T00:16:07;5.78;;;3.65;;
20391;SDS011;10355;53.688;10.078;2023-06-19T00:18:49;6.03;;;4.10;;
20391;SDS011;10355;53.688;10.078;2023-06-19T00:21:32;6.75;;;4.22;;
20391;SDS011;10355;53.688;10.078;2023-06-19T00:24:16;6.30;;;4.07;;
20391;SDS011;10355;53.688;10.078;2023-06-19T00:26:59;6.18;;;3.95;;
20391;SDS011;10355;53.688;10.078;2023-06-19T00:29:44;5.70;;;4.25;;
20391;SDS011;10355;53.688;10.078;2023-06-19T00:32:27;5.68;;;3.72;;
20391;SDS011;10355;53.688;10.078;2023-06-19T00:35:12;6.57;;;4.22;;
20391;SDS011;10355;53.688;10.078;2023-06-19T00:37:55;4.53;;;3.60;;
20391;SDS011;10355;53.688;10.078;2023-06-19T00:40:43;5.75;;;3.92;;
20391;SDS011;10355;53.688;10.078;2023-06-19T00:43:26;7.05;;;4.18;;
20391;SDS011;10355;53.688;10.078;2023-06-19T00:46:09;5.50;;;3.58;;
20391;SDS011;10355;53.688;10.078;2023-06-19T00:48:53;6.07;;;4.03;;
20391;SDS011;10355;53.688;10.078;2023-06-19T00:51:36;5.03;;;3.97;;
20391;SDS011;10355;53.688;10.078;2023-06-19T00:54:18;7.43;;;4.13;;
20391;SDS011;10355;53.688;10.078;2023-06-19T00:57:03;6.22;;;4.15;;
20391;SDS011;10355;53.688;10.078;2023-06-19T00:59:46;5.35;;;4.05;;
20391;SDS011;10355;53.688;10.078;2023-06-19T01:02:28;9.13;;;4.47;;
20391;SDS011;10355;53.688;10.078;2023-06-19T01:05:11;7.57;;;4.38;;
20391;SDS011;10355;53.688;10.078;2023-06-19T01:07:57;4.85;;;3.88;;
20391;SDS011;10355;53.688;10.078;2023-06-19T01:10:41;5.22;;;3.92;;
20391;SDS011;10355;53.688;10.078;2023-06-19T01:13:28;6.50;;;4.57;;
20391;SDS011;10355;53.688;10.078;2023-06-19T01:16:13;6.97;;;4.20;;
20391;SDS011;10355;53.688;10.078;2023-06-19T01:18:57;6.63;;;4.15;;
20391;SDS011;10355;53.688;10.078;2023-06-19T01:21:40;7.65;;;4.32;;
20391;SDS011;10355;53.688;10.078;2023-06-19T01:24:24;6.00;;;4.15;;
20391;SDS011;10355;53.688;10.078;2023-06-19T01:27:07;6.38;;;4.50;;
20391;SDS011;10355;53.688;10.078;2023-06-19T01:29:50;5.82;;;4.22;;
20391;SDS011;10355;53.688;10.078;2023-06-19T01:32:34;5.50;;;4.28;;
20391;SDS011;10355;53.688;10.078;2023-06-19T01:35:19;6.18;;;4.15;;
20391;SDS011;10355;53.688;10.078;2023-06-19T01:38:02;5.88;;;4.00;;
20391;SDS011;10355;53.688;10.078;2023-06-19T01:40:48;6.07;;;4.25;;
20391;SDS011;10355;53.688;10.078;2023-06-19T01:43:31;5.38;;;4.05;;
20391;SDS011;10355;53.688;10.078;2023-06-19T01:46:14;6.47;;;4.50;;
20391;SDS011;10355;53.688;10.078;2023-06-19T01:48:57;6.68;;;4.50;;
20391;SDS011;10355;53.688;10.078;2023-06-19T01:51:41;8.32;;;4.32;;
20391;SDS011;10355;53.688;10.078;2023-06-19T01:54:24;7.00;;;4.35;;
20391;SDS011;10355;53.688;10.078;2023-06-19T01:57:09;6.10;;;4.60;;
20391;SDS011;10355;53.688;10.078;2023-06-19T01:59:53;10.68;;;4.47;;
20391;SDS011;10355;53.688;10.078;2023-06-19T02:02:36;6.40;;;4.03;;
20391;SDS011;10355;53.688;10.078;2023-06-19T02:05:19;6.13;;;4.10;;
20391;SDS011;10355;53.688;10.078;2023-06-19T02:08:01;8.63;;;4.10;;
20391;SDS011;10355;53.688;10.078;2023-06-19T02:10:48;5.97;;;4.18;;
20391;SDS011;10355;53.688;10.078;2023-06-19T02:13:32;6.13;;;4.30;;
20391;SDS011;10355;53.688;10.078;2023-06-19T02:16:15;7.78;;;4.10;;
20391;SDS011;10355;53.688;10.078;2023-06-19T02:18:58;5.32;;;4.00;;
20391;SDS011;10355;53.688;10.078;2023-06-19T02:21:41;6.20;;;4.25;;
20391;SDS011;10355;53.688;10.078;2023-06-19T02:24:24;6.80;;;3.85;;
20391;SDS011;10355;53.688;10.078;2023-06-19T02:27:07;7.00;;;4.22;;
20391;SDS011;10355;53.688;10.078;2023-06-19T02:29:51;6.22;;;4.63;;
20391;SDS011;10355;53.688;10.078;2023-06-19T02:32:34;5.72;;;4.10;;
20391;SDS011;10355;53.688;10.078;2023-06-19T02:35:16;7.93;;;4.10;;
20391;SDS011;10355;53.688;10.078;2023-06-19T02:37:59;5.38;;;3.83;;
20391;SDS011;10355;53.688;10.078;2023-06-19T02:40:42;6.32;;;4.35;;
20391;SDS011;10355;53.688;10.078;2023-06-19T02:43:25;6.03;;;4.15;;
20391;SDS011;10355;53.688;10.078;2023-06-19T02:46:09;5.90;;;4.03;;
20391;SDS011;10355;53.688;10.078;2023-06-19T02:48:55;6.22;;;4.43;;
20391;SDS011;10355;53.688;10.078;2023-06-19T02:51:37;5.40;;;4.10;;
20391;SDS011;10355;53.688;10.078;2023-06-19T02:54:22;6.45;;;4.32;;
20391;SDS011;10355;53.688;10.078;2023-06-19T02:57:06;8.45;;;4.15;;
20391;SDS011;10355;53.688;10.078;2023-06-19T02:59:50;6.32;;;4.13;;
20391;SDS011;10355;53.688;10.078;2023-06-19T03:02:34;7.40;;;4.05;;
20391;SDS011;10355;53.688;10.078;2023-06-19T03:05:18;6.07;;;4.70;;
20391;SDS011;10355;53.688;10.078;2023-06-19T03:08:01;5.85;;;4.05;;
20391;SDS011;10355;53.688;10.078;2023-06-19T03:10:44;6.68;;;4.45;;
20391;SDS011;10355;53.688;10.078;2023-06-19T03:13:27;5.78;;;4.00;;
20391;SDS011;10355;53.688;10.078;2023-06-19T03:16:09;6.82;;;4.20;;
20391;SDS011;10355;53.688;10.078;2023-06-19T03:18:53;5.70;;;4.40;;
20391;SDS011;10355;53.688;10.078;2023-06-19T03:21:38;6.43;;;4.47;;
20391;SDS011;10355;53.688;10.078;2023-06-19T03:24:22;7.88;;;4.53;;
20391;SDS011;10355;53.688;10.078;2023-06-19T03:27:07;5.90;;;4.03;;
20391;SDS011;10355;53.688;10.078;2023-06-19T03:29:50;6.47;;;4.20;;
20391;SDS011;10355;53.688;10.078;2023-06-19T03:32:39;7.13;;;4.32;;
20391;SDS011;10355;53.688;10.078;2023-06-19T03:35:31;6.68;;;4.43;;
20391;SDS011;10355;53.688;10.078;2023-06-19T03:38:14;5.57;;;4.28;;
20391;SDS011;10355;53.688;10.078;2023-06-19T03:40:57;5.70;;;4.20;;
20391;SDS011;10355;53.688;10.078;2023-06-19T03:43:40;4.70;;;3.90;;
20391;SDS011;10355;53.688;10.078;2023-06-19T03:46:23;5.20;;;4.15;;
20391;SDS011;10355;53.688;10.078;2023-06-19T03:49:06;7.03;;;4.80;;
20391;SDS011;10355;53.688;10.078;2023-06-19T03:51:52;7.57;;;4.20;;
20391;SDS011;10355;53.688;10.078;2023-06-19T03:54:35;6.53;;;4.35;;
20391;SDS011;10355;53.688;10.078;2023-06-19T03:57:18;9.13;;;4.90;;
20391;SDS011;10355;53.688;10.078;2023-06-19T04:00:01;6.43;;;4.22;;
20391;SDS011;10355;53.688;10.078;2023-06-19T04:02:52;6.18;;;4.43;;
20391;SDS011;10355;53.688;10.078;2023-06-19T04:05:35;7.32;;;4.82;;
20391;SDS011;10355;53.688;10.078;2023-06-19T04:08:20;5.93;;;4.47;;
20391;SDS011;10355;53.688;10.078;2023-06-19T04:11:02;7.28;;;4.68;;
20391;SDS011;10355;53.688;10.078;2023-06-19T04:13:45;6.90;;;4.65;;
20391;SDS011;10355;53.688;10.078;2023-06-19T04:16:28;5.15;;;3.75;;
20391;SDS011;10355;53.688;10.078;2023-06-19T04:19:12;7.70;;;4.68;;
20391;SDS011;10355;53.688;10.078;2023-06-19T04:21:54;6.75;;;4.40;;
20391;SDS011;10355;53.688;10.078;2023-06-19T04:24:38;6.95;;;4.35;;
20391;SDS011;10355;53.688;10.078;2023-06-19T04:27:23;6.00;;;4.68;;
20391;SDS011;10355;53.688;10.078;2023-06-19T04:30:06;5.97;;;4.53;;
20391;SDS011;10355;53.688;10.078;2023-06-19T04:32:49;6.38;;;4.60;;
20391;SDS011;10355;53.688;10.078;2023-06-19T04:35:34;6.88;;;4.68;;
20391;SDS011;10355;53.688;10.078;2023-06-19T04:38:21;6.78;;;4.90;;
20391;SDS011;10355;53.688;10.078;2023-06-19T04:41:06;7.15;;;4.75;;
20391;SDS011;10355;53.688;10.078;2023-06-19T04:43:49;8.35;;;4.65;;
20391;SDS011;10355;53.688;10.078;2023-06-19T04:46:31;9.32;;;5.13;;
20391;SDS011;10355;53.688;10.078;2023-06-19T04:49:14;8.77;;;5.38;;
20391;SDS011;10355;53.688;10.078;2023-06-19T04:51:57;6.78;;;4.60;;
20391;SDS011;10355;53.688;10.078;2023-06-19T04:54:40;6.25;;;4.63;;
20391;SDS011;10355;53.688;10.078;2023-06-19T04:57:24;8.05;;;5.10;;
20391;SDS011;10355;53.688;10.078;2023-06-19T05:00:07;6.57;;;5.00;;
20391;SDS011;10355;53.688;10.078;2023-06-19T05:02:51;7.45;;;5.30;;
20391;SDS011;10355;53.688;10.078;2023-06-19T05:05:34;6.95;;;4.93;;
20391;SDS011;10355;53.688;10.078;2023-06-19T05:08:17;9.75;;;5.18;;
20391;SDS011;10355;53.688;10.078;2023-06-19T05:10:59;7.68;;;5.68;;
20391;SDS011;10355;53.688;10.078;2023-06-19T05:13:44;7.43;;;5.38;;
20391;SDS011;10355;53.688;10.078;2023-06-19T05:16:26;8.18;;;5.45;;
20391;SDS011;10355;53.688;10.078;2023-06-19T05:19:09;7.95;;;5.60;;
20391;SDS011;10355;53.688;10.078;2023-06-19T05:21:52;9.77;;;5.55;;
20391;SDS011;10355;53.688;10.078;2023-06-19T05:24:34;7.95;;;5.50;;
20391;SDS011;10355;53.688;10.078;2023-06-19T05:27:17;8.30;;;5.70;;
20391;SDS011;10355;53.688;10.078;2023-06-19T05:30:02;6.68;;;5.30;;
20391;SDS011;10355;53.688;10.078;2023-06-19T05:32:45;7.78;;;5.80;;
20391;SDS011;10355;53.688;10.078;2023-06-19T05:35:28;8.32;;;5.38;;
20391;SDS011;10355;53.688;10.078;2023-06-19T05:38:11;7.82;;;5.07;;
20391;SDS011;10355;53.688;10.078;2023-06-19T05:40:54;8.68;;;5.70;;
20391;SDS011;10355;53.688;10.078;2023-06-19T05:43:37;8.02;;;5.38;;
20391;SDS011;10355;53.688;10.078;2023-06-19T05:46:22;9.48;;;6.18;;
20391;SDS011;10355;53.688;10.078;2023-06-19T05:49:04;9.75;;;5.60;;
20391;SDS011;10355;53.688;10.078;2023-06-19T05:51:47;10.32;;;5.93;;
20391;SDS011;10355;53.688;10.078;2023-06-19T05:54:30;7.85;;;5.80;;
20391;SDS011;10355;53.688;10.078;2023-06-19T05:57:13;8.13;;;5.50;;
20391;SDS011;10355;53.688;10.078;2023-06-19T05:59:57;8.07;;;6.20;;
20391;SDS011;10355;53.688;10.078;2023-06-19T06:02:41;9.50;;;5.78;;
20391;SDS011;10355;53.688;10.078;2023-06-19T06:05:24;9.00;;;6.30;;
20391;SDS011;10355;53.688;10.078;2023-06-19T06:08:07;8.95;;;6.22;;
20391;SDS011;10355;53.688;10.078;2023-06-19T06:10:51;7.18;;;5.63;;
20391;SDS011;10355;53.688;10.078;2023-06-19T06:13:33;8.52;;;5.70;;
20391;SDS011;10355;53.688;10.078;2023-06-19T06:16:17;8.23;;;5.65;;
20391;SDS011;10355;53.688;10.078;2023-06-19T06:19:01;8.50;;;5.72;;
20391;SDS011;10355;53.688;10.078;2023-06-19T06:21:44;7.28;;;5.50;;
20391;SDS011;10355;53.688;10.078;2023-06-19T06:24:26;7.57;;;5.82;;
20391;SDS011;10355;53.688;10.078;2023-06-19T06:27:09;8.52;;;6.18;;
20391;SDS011;10355;53.688;10.078;2023-06-19T06:29:53;7.55;;;5.57;;
20391;SDS011;10355;53.688;10.078;2023-06-19T06:32:35;11.48;;;6.15;;
20391;SDS011;10355;53.688;10.078;2023-06-19T06:35:19;8.65;;;5.90;;
20391;SDS011;10355;53.688;10.078;2023-06-19T06:38:02;9.98;;;6.50;;
20391;SDS011;10355;53.688;10.078;2023-06-19T06:40:45;8.80;;;5.70;;
20391;SDS011;10355;53.688;10.078;2023-06-19T06:43:28;9.15;;;5.80;;
20391;SDS011;10355;53.688;10.078;2023-06-19T06:46:11;10.40;;;6.18;;
20391;SDS011;10355;53.688;10.078;2023-06-19T06:48:54;8.60;;;6.22;;
20391;SDS011;10355;53.688;10.078;2023-06-19T06:51:38;9.25;;;6.07;;
20391;SDS011;10355;53.688;10.078;2023-06-19T06:54:21;9.75;;;6.18;;
20391;SDS011;10355;53.688;10.078;2023-06-19T06:57:04;8.30;;;6.07;;
20391;SDS011;10355;53.688;10.078;2023-06-19T06:59:46;11.23;;;7.05;;
20391;SDS011;10355;53.688;10.078;2023-06-19T07:02:29;8.95;;;6.25;;
20391;SDS011;10355;53.688;10.078;2023-06-19T07:05:12;8.43;;;6.43;;
20391;SDS011;10355;53.688;10.078;2023-06-19T07:07:56;8.98;;;6.20;;
20391;SDS011;10355;53.688;10.078;2023-06-19T07:10:39;10.45;;;7.18;;
20391;SDS011;10355;53.688;10.078;2023-06-19T07:13:23;11.45;;;7.07;;
20391;SDS011;10355;53.688;10.078;2023-06-19T07:16:05;9.20;;;6.55;;
20391;SDS011;10355;53.688;10.078;2023-06-19T07:18:48;10.00;;;6.80;;
20391;SDS011;10355;53.688;10.078;2023-06-19T07:21:31;7.68;;;6.43;;
20391;SDS011;10355;53.688;10.078;2023-06-19T07:24:15;12.10;;;7.30;;
20391;SDS011;10355;53.688;10.078;2023-06-19T07:26:58;9.95;;;6.80;;
20391;SDS011;10355;53.688;10.078;2023-06-19T07:29:40;9.93;;;6.68;;
20391;SDS011;10355;53.688;10.078;2023-06-19T07:32:23;10.10;;;6.97;;
20391;SDS011;10355;53.688;10.078;2023-06-19T07:35:06;8.30;;;6.43;;
20391;SDS011;10355;53.688;10.078;2023-06-19T07:37:49;9.15;;;7.03;;
20391;SDS011;10355;53.688;10.078;2023-06-19T07:40:33;10.60;;;7.15;;
20391;SDS011;10355;53.688;10.078;2023-06-19T07:43:15;10.05;;;6.85;;
20391;SDS011;10355;53.688;10.078;2023-06-19T07:45:58;9.63;;;7.28;;
20391;SDS011;10355;53.688;10.078;2023-06-19T07:48:41;10.07;;;6.88;;
20391;SDS011;10355;53.688;10.078;2023-06-19T07:51:24;9.77;;;7.40;;
20391;SDS011;10355;53.688;10.078;2023-06-19T07:54:07;9.13;;;6.90;;
20391;SDS011;10355;53.688;10.078;2023-06-19T07:56:51;8.80;;;6.57;;
20391;SDS011;10355;53.688;10.078;2023-06-19T07:59:34;10.60;;;7.35;;
20391;SDS011;10355;53.688;10.078;2023-06-19T08:02:16;9.18;;;6.72;;
20391;SDS011;10355;53.688;10.078;2023-06-19T08:05:00;9.85;;;7.20;;
20391;SDS011;10355;53.688;10.078;2023-06-19T08:07:42;10.55;;;7.40;;
20391;SDS011;10355;53.688;10.078;2023-06-19T08:10:25;11.20;;;7.32;;
20391;SDS011;10355;53.688;10.078;2023-06-19T08:13:09;12.70;;;7.30;;
20391;SDS011;10355;53.688;10.078;2023-06-19T08:15:52;11.88;;;7.13;;
20391;SDS011;10355;53.688;10.078;2023-06-19T08:18:35;9.52;;;6.75;;
20391;SDS011;10355;53.688;10.078;2023-06-19T08:21:18;10.07;;;6.88;;
20391;SDS011;10355;53.688;10.078;2023-06-19T08:24:02;10.48;;;6.97;;
20391;SDS011;10355;53.688;10.078;2023-06-19T08:26:45;11.27;;;7.38;;
20391;SDS011;10355;53.688;10.078;2023-06-19T08:29:33;8.73;;;7.07;;
20391;SDS011;10355;53.688;10.078;2023-06-19T08:32:16;9.55;;;7.20;;
20391;SDS011;10355;53.688;10.078;2023-06-19T08:34:59;9.90;;;7.15;;
20391;SDS011;10355;53.688;10.078;2023-06-19T08:37:41;10.65;;;7.85;;
20391;SDS011;10355;53.688;10.078;2023-06-19T08:40:24;11.13;;;7.50;;
20391;SDS011;10355;53.688;10.078;2023-06-19T08:43:07;11.63;;;7.57;;
20391;SDS011;10355;53.688;10.078;2023-06-19T08:45:58;8.88;;;7.13;;
20391;SDS011;10355;53.688;10.078;2023-06-19T08:48:44;10.70;;;7.47;;
20391;SDS011;10355;53.688;10.078;2023-06-19T08:51:27;10.38;;;7.82;;
20391;SDS011;10355;53.688;10.078;2023-06-19T08:54:09;11.32;;;7.35;;
20391;SDS011;10355;53.688;10.078;2023-06-19T08:56:54;11.30;;;7.78;;
20391;SDS011;10355;53.688;10.078;2023-06-19T08:59:37;11.20;;;7.60;;
20391;SDS011;10355;53.688;10.078;2023-06-19T09:02:23;9.55;;;7.32;;
20391;SDS011;10355;53.688;10.078;2023-06-19T09:05:12;9.88;;;7.45;;
20391;SDS011;10355;53.688;10.078;2023-06-19T09:07:56;11.25;;;7.90;;
20391;SDS011;10355;53.688;10.078;2023-06-19T09:10:39;10.63;;;7.60;;
20391;SDS011;10355;53.688;10.078;2023-06-19T09:13:22;12.23;;;7.22;;
20391;SDS011;10355;53.688;10.078;2023-06-19T09:16:05;12.63;;;7.18;;
20391;SDS011;10355;53.688;10.078;2023-06-19T09:18:49;10.48;;;7.60;;
20391;SDS011;10355;53.688;10.078;2023-06-19T09:21:35;11.57;;;7.55;;
20391;SDS011;10355;53.688;10.078;2023-06-19T09:24:18;11.70;;;7.43;;
20391;SDS011;10355;53.688;10.078;2023-06-19T09:27:07;15.30;;;7.60;;
20391;SDS011;10355;53.688;10.078;2023-06-19T09:29:50;10.75;;;7.80;;
20391;SDS011;10355;53.688;10.078;2023-06-19T09:32:34;9.88;;;7.50;;
20391;SDS011;10355;53.688;10.078;2023-06-19T09:35:18;9.90;;;6.78;;
20391;SDS011;10355;53.688;10.078;2023-06-19T09:38:02;9.95;;;6.95;;
20391;SDS011;10355;53.688;10.078;2023-06-19T09:40:45;10.20;;;7.10;;
20391;SDS011;10355;53.688;10.078;2023-06-19T09:43:30;12.02;;;7.60;;
20391;SDS011;10355;53.688;10.078;2023-06-19T09:46:13;10.00;;;7.18;;
20391;SDS011;10355;53.688;10.078;2023-06-19T09:48:57;13.48;;;7.53;;
20391;SDS011;10355;53.688;10.078;2023-06-19T09:51:44;11.25;;;7.10;;
20391;SDS011;10355;53.688;10.078;2023-06-19T09:54:26;9.85;;;6.90;;
20391;SDS011;10355;53.688;10.078;2023-06-19T09:57:10;11.18;;;7.70;;
20391;SDS011;10355;53.688;10.078;2023-06-19T09:59:53;11.95;;;7.90;;
20391;SDS011;10355;53.688;10.078;2023-06-19T10:02:39;13.75;;;7.03;;
20391;SDS011;10355;53.688;10.078;2023-06-19T10:05:27;11.93;;;8.13;;
20391;SDS011;10355;53.688;10.078;2023-06-19T10:08:13;9.68;;;6.70;;
20391;SDS011;10355;53.688;10.078;2023-06-19T10:10:55;10.68;;;7.78;;
20391;SDS011;10355;53.688;10.078;2023-06-19T10:13:39;11.70;;;8.00;;
20391;SDS011;10355;53.688;10.078;2023-06-19T10:16:23;10.23;;;7.22;;
20391;SDS011;10355;53.688;10.078;2023-06-19T10:19:13;9.38;;;6.65;;
20391;SDS011;10355;53.688;10.078;2023-06-19T10:21:56;9.23;;;6.53;;
20391;SDS011;10355;53.688;10.078;2023-06-19T10:24:50;10.02;;;7.00;;
20391;SDS011;10355;53.688;10.078;2023-06-19T10:27:33;12.75;;;6.65;;
20391;SDS011;10355;53.688;10.078;2023-06-19T10:30:16;10.43;;;6.53;;
20391;SDS011;10355;53.688;10.078;2023-06-19T10:32:59;10.20;;;6.43;;
20391;SDS011;10355;53.688;10.078;2023-06-19T10:35:45;9.65;;;6.63;;
20391;SDS011;10355;53.688;10.078;2023-06-19T10:38:28;8.77;;;6.25;;
20391;SDS011;10355;53.688;10.078;2023-06-19T10:41:15;9.25;;;6.85;;
20391;SDS011;10355;53.688;10.078;2023-06-19T10:43:59;9.52;;;7.18;;
20391;SDS011;10355;53.688;10.078;2023-06-19T10:46:42;9.20;;;6.80;;
20391;SDS011;10355;53.688;10.078;2023-06-19T10:49:25;9.82;;;6.63;;
20391;SDS011;10355;53.688;10.078;2023-06-19T10:52:08;9.57;;;6.82;;
20391;SDS011;10355;53.688;10.078;2023-06-19T10:54:52;11.90;;;6.68;;
20391;SDS011;10355;53.688;10.078;2023-06-19T10:57:37;8.65;;;6.70;;
20391;SDS011;10355;53.688;10.078;2023-06-19T11:00:24;9.63;;;7.25;;
20391;SDS011;10355;53.688;10.078;2023-06-19T11:03:07;10.02;;;7.05;;
20391;SDS011;10355;53.688;10.078;2023-06-19T11:05:50;9.82;;;7.22;;
20391;SDS011;10355;53.688;10.078;2023-06-19T11:08:32;9.98;;;7.05;;
20391;SDS011;10355;53.688;10.078;2023-06-19T11:11:16;11.02;;;7.55;;
20391;SDS011;10355;53.688;10.078;2023-06-19T11:14:00;13.10;;;7.88;;
20391;SDS011;10355;53.688;10.078;2023-06-19T11:16:44;10.68;;;7.18;;
20391;SDS011;10355;53.688;10.078;2023-06-19T11:19:29;11.85;;;7.80;;
20391;SDS011;10355;53.688;10.078;2023-06-19T11:22:12;12.52;;;7.28;;
20391;SDS011;10355;53.688;10.078;2023-06-19T11:24:55;10.20;;;7.50;;
20391;SDS011;10355;53.688;10.078;2023-06-19T11:27:44;13.30;;;7.78;;
20391;SDS011;10355;53.688;10.078;2023-06-19T11:30:34;12.80;;;7.82;;
20391;SDS011;10355;53.688;10.078;2023-06-19T11:33:17;10.90;;;7.70;;
20391;SDS011;10355;53.688;10.078;2023-06-19T11:36:03;10.95;;;7.88;;
20391;SDS011;10355;53.688;10.078;2023-06-19T11:38:47;11.35;;;7.57;;
20391;SDS011;10355;53.688;10.078;2023-06-19T11:41:31;9.73;;;6.97;;
20391;SDS011;10355;53.688;10.078;2023-06-19T11:44:14;11.18;;;8.00;;
20391;SDS011;10355;53.688;10.078;2023-06-19T11:46:58;9.30;;;7.13;;
20391;SDS011;10355;53.688;10.078;2023-06-19T11:49:41;13.10;;;7.90;;
20391;SDS011;10355;53.688;10.078;2023-06-19T11:52:23;12.68;;;8.18;;
20391;SDS011;10355;53.688;10.078;2023-06-19T11:55:06;11.10;;;7.93;;
20391;SDS011;10355;53.688;10.078;2023-06-19T11:57:49;12.75;;;8.40;;
20391;SDS011;10355;53.688;10.078;2023-06-19T12:00:32;11.25;;;7.93;;
20391;SDS011;10355;53.688;10.078;2023-06-19T12:03:16;11.55;;;7.20;;
20391;SDS011;10355;53.688;10.078;2023-06-19T12:05:59;10.60;;;7.22;;
20391;SDS011;10355;53.688;10.078;2023-06-19T12:08:42;10.07;;;6.40;;
20391;SDS011;10355;53.688;10.078;2023-06-19T12:11:25;9.32;;;6.68;;
20391;SDS011;10355;53.688;10.078;2023-06-19T12:14:07;8.75;;;6.68;;
20391;SDS011;10355;53.688;10.078;2023-06-19T12:16:50;7.20;;;5.70;;
20391;SDS011;10355;53.688;10.078;2023-06-19T12:19:34;8.20;;;5.80;;
20391;SDS011;10355;53.688;10.078;2023-06-19T12:22:17;10.98;;;6.40;;
20391;SDS011;10355;53.688;10.078;2023-06-19T12:25:00;8.18;;;5.38;;
20391;SDS011;10355;53.688;10.078;2023-06-19T12:27:43;10.93;;;6.40;;
20391;SDS011;10355;53.688;10.078;2023-06-19T12:30:25;9.00;;;5.97;;
20391;SDS011;10355;53.688;10.078;2023-06-19T12:33:08;8.00;;;5.53;;
20391;SDS011;10355;53.688;10.078;2023-06-19T12:35:53;8.73;;;5.80;;
20391;SDS011;10355;53.688;10.078;2023-06-19T12:38:35;7.35;;;5.43;;
20391;SDS011;10355;53.688;10.078;2023-06-19T12:41:19;8.27;;;5.68;;
20391;SDS011;10355;53.688;10.078;2023-06-19T12:44:02;6.60;;;5.15;;
20391;SDS011;10355;53.688;10.078;2023-06-19T12:46:45;10.45;;;5.93;;
20391;SDS011;10355;53.688;10.078;2023-06-19T12:49:28;8.43;;;5.40;;
20391;SDS011;10355;53.688;10.078;2023-06-19T12:52:12;10.32;;;5.70;;
20391;SDS011;10355;53.688;10.078;2023-06-19T12:54:55;6.30;;;5.22;;
20391;SDS011;10355;53.688;10.078;2023-06-19T12:57:39;7.75;;;5.32;;
20391;SDS011;10355;53.688;10.078;2023-06-19T13:00:22;8.70;;;5.65;;
20391;SDS011;10355;53.688;10.078;2023-06-19T13:03:05;9.52;;;5.60;;
20391;SDS011;10355;53.688;10.078;2023-06-19T13:05:48;7.65;;;5.38;;
20391;SDS011;10355;53.688;10.078;2023-06-19T13:08:32;6.65;;;4.90;;
20391;SDS011;10355;53.688;10.078;2023-06-19T13:11:15;10.15;;;5.20;;
20391;SDS011;10355;53.688;10.078;2023-06-19T13:13:58;6.18;;;4.43;;
20391;SDS011;10355;53.688;10.078;2023-06-19T13:16:40;9.00;;;4.80;;
20391;SDS011;10355;53.688;10.078;2023-06-19T13:19:27;7.32;;;5.20;;
20391;SDS011;10355;53.688;10.078;2023-06-19T13:22:10;5.72;;;4.50;;
20391;SDS011;10355;53.688;10.078;2023-06-19T13:24:54;8.10;;;4.97;;
20391;SDS011;10355;53.688;10.078;2023-06-19T13:27:37;6.22;;;4.40;;
20391;SDS011;10355;53.688;10.078;2023-06-19T13:30:20;6.68;;;4.63;;
20391;SDS011;10355;53.688;10.078;2023-06-19T13:33:03;8.55;;;5.07;;
20391;SDS011;10355;53.688;10.078;2023-06-19T13:35:46;7.47;;;4.95;;
20391;SDS011;10355;53.688;10.078;2023-06-19T13:38:29;10.43;;;5.10;;
20391;SDS011;10355;53.688;10.078;2023-06-19T13:41:13;7.97;;;4.78;;
20391;SDS011;10355;53.688;10.078;2023-06-19T13:43:56;8.35;;;4.97;;
20391;SDS011;10355;53.688;10.078;2023-06-19T13:46:38;5.80;;;4.22;;
20391;SDS011;10355;53.688;10.078;2023-06-19T13:49:21;7.20;;;4.35;;
20391;SDS011;10355;53.688;10.078;2023-06-19T13:52:04;5.75;;;4.20;;
20391;SDS011;10355;53.688;10.078;2023-06-19T13:54:47;6.63;;;4.30;;
20391;SDS011;10355;53.688;10.078;2023-06-19T13:57:32;9.45;;;4.30;;
20391;SDS011;10355;53.688;10.078;2023-06-19T14:00:15;8.25;;;4.35;;
20391;SDS011;10355;53.688;10.078;2023-06-19T14:02:58;7.53;;;3.78;;
20391;SDS011;10355;53.688;10.078;2023-06-19T14:05:41;6.38;;;4.45;;
20391;SDS011;10355;53.688;10.078;2023-06-19T14:08:25;7.20;;;4.88;;
20391;SDS011;10355;53.688;10.078;2023-06-19T14:11:08;6.28;;;4.28;;
20391;SDS011;10355;53.688;10.078;2023-06-19T14:13:52;5.10;;;4.05;;
20391;SDS011;10355;53.688;10.078;2023-06-19T14:16:35;5.22;;;3.70;;
20391;SDS011;10355;53.688;10.078;2023-06-19T14:19:17;5.72;;;3.92;;
20391;SDS011;10355;53.688;10.078;2023-06-19T14:22:00;8.57;;;3.92;;
20391;SDS011;10355;53.688;10.078;2023-06-19T14:24:44;7.15;;;4.00;;
20391;SDS011;10355;53.688;10.078;2023-06-19T14:27:27;4.47;;;3.35;;
20391;SDS011;10355;53.688;10.078;2023-06-19T14:30:11;8.07;;;4.35;;
20391;SDS011;10355;53.688;10.078;2023-06-19T14:32:54;7.75;;;4.07;;
20391;SDS011;10355;53.688;10.078;2023-06-19T14:35:37;7.32;;;4.07;;
20391;SDS011;10355;53.688;10.078;2023-06-19T14:38:19;7.35;;;3.65;;
20391;SDS011;10355;53.688;10.078;2023-06-19T14:41:02;7.15;;;3.40;;
20391;SDS011;10355;53.688;10.078;2023-06-19T14:43:45;5.28;;;4.07;;
20391;SDS011;10355;53.688;10.078;2023-06-19T14:46:29;6.38;;;3.67;;
20391;SDS011;10355;53.688;10.078;2023-06-19T14:49:20;5.47;;;3.83;;
20391;SDS011;10355;53.688;10.078;2023-06-19T14:52:03;5.35;;;3.60;;
20391;SDS011;10355;53.688;10.078;2023-06-19T14:54:46;4.30;;;2.90;;
20391;SDS011;10355;53.688;10.078;2023-06-19T14:57:29;4.43;;;3.55;;
20391;SDS011;10355;53.688;10.078;2023-06-19T15:00:12;4.75;;;3.35;;
20391;SDS011;10355;53.688;10.078;2023-06-19T15:02:57;5.75;;;3.55;;
20391;SDS011;10355;53.688;10.078;2023-06-19T15:05:39;7.60;;;3.67;;
20391;SDS011;10355;53.688;10.078;2023-06-19T15:08:22;6.20;;;3.95;;
20391;SDS011;10355;53.688;10.078;2023-06-19T15:11:05;8.27;;;4.40;;
20391;SDS011;10355;53.688;10.078;2023-06-19T15:13:48;6.93;;;4.40;;
20391;SDS011;10355;53.688;10.078;2023-06-19T15:16:31;4.78;;;3.28;;
20391;SDS011;10355;53.688;10.078;2023-06-19T15:19:19;7.68;;;4.05;;
20391;SDS011;10355;53.688;10.078;2023-06-19T15:25:05;6.53;;;3.97;;
20391;SDS011;10355;53.688;10.078;2023-06-19T15:27:49;4.82;;;3.88;;
20391;SDS011;10355;53.688;10.078;2023-06-19T15:30:31;5.20;;;3.88;;
20391;SDS011;10355;53.688;10.078;2023-06-19T15:33:14;8.93;;;4.10;;
20391;SDS011;10355;53.688;10.078;2023-06-19T15:36:00;5.72;;;4.20;;
20391;SDS011;10355;53.688;10.078;2023-06-19T15:38:43;6.47;;;4.18;;
20391;SDS011;10355;53.688;10.078;2023-06-19T15:41:26;6.13;;;3.92;;
20391;SDS011;10355;53.688;10.078;2023-06-19T15:44:09;4.90;;;3.70;;
20391;SDS011;10355;53.688;10.078;2023-06-19T15:46:52;5.45;;;4.13;;
20391;SDS011;10355;53.688;10.078;2023-06-19T15:49:34;5.63;;;4.22;;
20391;SDS011;10355;53.688;10.078;2023-06-19T15:52:19;4.25;;;3.35;;
20391;SDS011;10355;53.688;10.078;2023-06-19T15:55:03;5.18;;;3.65;;
20391;SDS011;10355;53.688;10.078;2023-06-19T15:57:46;5.90;;;3.72;;
20391;SDS011;10355;53.688;10.078;2023-06-19T16:00:28;7.05;;;3.40;;
20391;SDS011;10355;53.688;10.078;2023-06-19T16:03:11;6.35;;;3.80;;
20391;SDS011;10355;53.688;10.078;2023-06-19T16:05:54;6.45;;;3.78;;
20391;SDS011;10355;53.688;10.078;2023-06-19T16:08:41;5.18;;;3.70;;
20391;SDS011;10355;53.688;10.078;2023-06-19T16:11:25;4.47;;;3.42;;